Terminal Aerodrome Forecast
Issued by NWS Pendleton, OR

Home | Current Version | Previous Version | Text Only | Print | Product List | Glossary On
Versions: 1 2 3 4 5 6 7 8 9 10 11 12 13 14 15 16
000
FTUS46 KPDT 242327
TAFPDT
TAF
KPDT 242327Z 2500/2524 29009KT P6SM SCT100 SCT250
     FM250400 24010KT P6SM SCT250
     FM251200 22008KT P6SM SCT200
     FM251800 28011KT P6SM SCT200=

USA.gov is the U.S. government's official web portal to all federal, state and local government web resources and services.